Sylvan Lake, Canada
Current Conditions -  °F | °C
As of 9:00 PM on Tuesday 25 Nov 2014 (Local Time) from CYQF Reporting Station
Light Snow Light Snow  
Wind Chill: 19°   Ceiling: 2100
Heat Index: 19°   Visibility: 8mi
Dew Point: 18°   Wind: 2mph
Humidity: 93%   Direction: 150°SSE
Pressure: 30.13"   Gusts: NA
Location:  52.31°N, 114.09°W
Report Text: CYQF 260400Z 15002KT 8SM -SN OVC021 M07/M08 A3013 RMK SC8 SLP255
Loading
Personal Weather Stations






























Interactive Weather Map New forecast layout! Learn more

10-Day Weather Forecast

Advertisements
Track Severe Weather on mobile